KCDW/CDW METAR and TAF weather

Enter ICAO airport designator
Station Type Date Time Source
KCDW METAR 2022/10/01 07:53 UTC NOAA

KCDW 010753Z AUTO 07007KT 10SM -RA OVC110 13/09 A3011 RMK AO2 RAE06B42 SLP201 P0000 T01330089


Station Type Date Time Source
KCDW Decoded METAR 2022/10/01 07:53 UTC NOAA

CALDWELL ESSEX COUNTY AIRPORT , NJ, United States (KCDW) 40-53N 074-17W 64M
Oct 01, 2022 - 03:53 AM EDT / 2022.10.01 0753 UTC
Wind: from the ENE (070 degrees) at 8 MPH (7 KT):0
Visibility: 10 mile(s):0
Sky conditions: overcast
Weather: light rain
Precipitation last hour: A trace
Temperature: 55.9 F (13.3 C)
Dew Point: 48.0 F (8.9 C)
Relative Humidity: 74%
Pressure (altimeter): 30.11 in. Hg (1019 hPa)
ob: KCDW 010753Z AUTO 07007KT 10SM -RA OVC110 13/09 A3011 RMK AO2 RAE06B42 SLP201 P0000 T01330089
cycle: 8

Station Type Date Time Source
KCDW TAF UTC NOAA

Error!

Example: see airport list